KEPH

Ephrata Municipal Airport

Ephrata, Washington, USA
METAR KEPH 191053Z AUTO 20009KT 10SM CLR 04/M02 A3010 RMK AO2 SLP198 T00441022
Observed Flight Rules
Dec-19 @ 10:53 UTC (47 minutes ago) Visual Flight Rules
Wind Visibility Clouds
200° at 9 knots 10 miles
  • Clear skies
Temperatures Readings
Current 4°C / 39°F
Dewpoint -2°C / 28°F
Humidity 65%
Altimeter 30.1" Hg
Pressure 1019.8 hPa
Elevation 383
METAR KEPH 191053Z AUTO 20009KT 10SM CLR 04/M02 A3010 RMK AO2 SLP198 T00441022
Observed Flight Rules
Dec-19 @ 10:53 UTC
(47 minutes ago)
VFR
Wind Visibility
200° at 9 knots 10 miles
Clouds
  • Clear skies
Temperature Dewpoint
4°C / 39°F -2°C / 28°F
Humidity Altimeter Pressure
65% 30.1" Hg 1019.8 hPa